createdAt,value
2022-08-12T06:13:54.014Z,19.29
2022-08-12T06:23:51.168Z,19.60
2022-08-12T06:33:55.950Z,20.59
2022-08-12T06:44:05.036Z,21.91
2022-08-12T06:53:51.360Z,22.28
2022-08-12T07:03:51.284Z,22.38
2022-08-12T07:14:02.622Z,22.35
2022-08-12T07:23:51.199Z,22.62
2022-08-12T07:33:51.299Z,23.26
2022-08-12T07:43:51.359Z,24.04
2022-08-12T07:54:00.203Z,24.72
2022-08-12T08:03:51.320Z,25.27
2022-08-12T08:13:51.351Z,25.77
2022-08-12T08:23:55.664Z,26.43
2022-08-12T08:34:05.039Z,26.77
2022-08-12T08:43:51.354Z,27.57
2022-08-12T08:53:52.916Z,27.63
2022-08-12T09:05:07.237Z,28.09
2022-08-12T09:14:11.582Z,27.89
2022-08-12T09:23:56.939Z,28.25
2022-08-12T09:34:25.291Z,28.20
2022-08-12T09:43:54.026Z,28.18
2022-08-12T09:54:05.925Z,27.93
2022-08-12T10:04:03.409Z,28.28
2022-08-12T10:13:51.467Z,28.01
2022-08-12T10:23:55.098Z,28.09
2022-08-12T10:33:55.540Z,28.38
2022-08-12T10:43:55.387Z,28.42
2022-08-12T10:53:52.635Z,29.12
2022-08-12T11:04:19.711Z,28.76
2022-08-12T11:13:51.527Z,29.21
2022-08-12T11:23:53.653Z,28.88
2022-08-12T11:34:05.785Z,29.09
2022-08-12T11:43:58.588Z,28.68
2022-08-12T11:53:57.000Z,28.97
2022-08-12T12:03:51.609Z,29.48
2022-08-12T12:14:07.656Z,29.66
2022-08-12T12:23:51.580Z,29.32
2022-08-12T12:33:57.829Z,29.58
2022-08-12T12:44:03.600Z,29.64
2022-08-12T12:54:08.846Z,29.13
2022-08-12T13:03:51.607Z,30.03
2022-08-12T13:14:06.949Z,29.97
2022-08-12T13:23:51.715Z,29.67
2022-08-12T13:34:32.690Z,29.76
2022-08-12T13:43:51.619Z,30.13
2022-08-12T13:53:55.225Z,29.85
2022-08-12T14:03:52.090Z,29.44
2022-08-12T14:14:03.306Z,29.88
2022-08-12T14:24:04.552Z,29.53
2022-08-12T14:33:51.737Z,30.25
2022-08-12T14:44:04.798Z,29.86
2022-08-12T14:55:28.421Z,30.04
2022-08-12T15:03:56.789Z,29.67
2022-08-12T15:13:51.687Z,29.79
2022-08-12T15:23:55.353Z,29.70
2022-08-12T15:33:52.758Z,30.10
2022-08-12T15:44:32.694Z,29.49
2022-08-12T15:53:53.198Z,29.62
2022-08-12T16:03:59.950Z,29.80
2022-08-12T16:13:51.765Z,29.92
2022-08-12T16:23:55.419Z,29.82
2022-08-12T16:33:59.763Z,29.28
2022-08-12T16:43:51.806Z,29.16
2022-08-12T16:53:51.716Z,29.41
2022-08-12T17:03:52.460Z,29.18
2022-08-12T17:13:53.553Z,29.00
2022-08-12T17:23:53.477Z,28.75
2022-08-12T17:33:55.486Z,28.52
2022-08-12T17:43:58.196Z,28.31
2022-08-12T17:54:10.514Z,28.07
2022-08-12T18:04:14.086Z,27.45
2022-08-12T18:13:51.774Z,26.88
2022-08-12T18:23:53.897Z,26.49
2022-08-12T18:33:51.652Z,26.05
2022-08-12T18:43:58.826Z,25.76
2022-08-12T18:54:05.360Z,25.16
2022-08-12T19:03:51.884Z,24.54
2022-08-12T19:13:51.872Z,24.26
